createdAt,value
2024-02-06T00:00:56.236Z,6.48
2024-02-06T00:05:52.761Z,6.54
2024-02-06T00:10:49.363Z,6.57
2024-02-06T00:15:46.678Z,6.61
2024-02-06T00:20:43.125Z,6.64
2024-02-06T00:25:39.701Z,6.73
2024-02-06T00:30:36.382Z,6.77
2024-02-06T00:35:32.802Z,6.83
2024-02-06T00:40:29.201Z,6.88
2024-02-06T00:45:26.140Z,6.92
2024-02-06T00:50:22.653Z,6.96
2024-02-06T00:55:19.541Z,6.98
2024-02-06T01:00:16.875Z,7.02
2024-02-06T01:05:13.417Z,7.10
2024-02-06T01:10:10.323Z,7.13
2024-02-06T01:15:07.664Z,7.17
2024-02-06T01:20:04.435Z,7.23
2024-02-06T01:25:00.837Z,7.28
2024-02-06T01:29:57.211Z,7.27
2024-02-06T01:34:53.694Z,7.29
2024-02-06T01:39:50.196Z,7.26
2024-02-06T01:44:46.552Z,7.12
2024-02-06T01:49:44.344Z,7.07
2024-02-06T01:54:41.194Z,7.10
2024-02-06T01:59:37.949Z,7.13
2024-02-06T02:04:35.212Z,7.19
2024-02-06T02:09:31.702Z,7.26
2024-02-06T02:14:28.212Z,7.30
2024-02-06T02:19:24.670Z,7.38
2024-02-06T02:24:21.228Z,7.42
2024-02-06T02:29:19.253Z,7.48
2024-02-06T02:34:16.146Z,7.44
2024-02-06T02:39:12.713Z,7.42
2024-02-06T02:44:09.052Z,7.39
2024-02-06T02:49:05.542Z,7.36
2024-02-06T02:54:02.218Z,7.27
2024-02-06T02:58:58.586Z,7.26
2024-02-06T03:03:55.030Z,7.27
2024-02-06T03:08:51.481Z,7.24
2024-02-06T03:13:47.880Z,7.28
2024-02-06T03:18:44.247Z,7.29
2024-02-06T03:23:40.811Z,7.30
2024-02-06T03:28:37.281Z,7.32
2024-02-06T03:33:36.071Z,7.32
2024-02-06T03:38:32.529Z,7.29
2024-02-06T03:43:29.496Z,7.29
2024-02-06T03:48:25.998Z,7.28
2024-02-06T03:53:22.768Z,7.30
2024-02-06T03:58:19.801Z,7.31
2024-02-06T04:03:16.992Z,7.30
2024-02-06T04:08:13.496Z,7.36
2024-02-06T04:13:10.063Z,7.40
2024-02-06T04:18:07.114Z,7.46
2024-02-06T04:23:04.412Z,7.51
2024-02-06T04:28:00.789Z,7.63
2024-02-06T04:32:57.288Z,7.64
2024-02-06T04:37:53.739Z,7.63
2024-02-06T04:42:50.457Z,7.61
2024-02-06T04:47:46.802Z,7.56
2024-02-06T04:52:43.171Z,7.64
2024-02-06T04:57:39.973Z,7.75
2024-02-06T05:02:36.497Z,7.67
2024-02-06T05:07:33.752Z,7.59
2024-02-06T05:12:30.211Z,7.52
2024-02-06T05:17:27.514Z,7.46
2024-02-06T05:22:24.005Z,7.49
2024-02-06T05:27:20.397Z,7.46
2024-02-06T05:32:17.100Z,7.44
2024-02-06T05:37:13.534Z,7.43
2024-02-06T05:42:10.357Z,7.45
2024-02-06T05:47:06.699Z,7.43
2024-02-06T05:52:03.722Z,7.45
2024-02-06T05:57:00.575Z,7.41
2024-02-06T06:01:56.995Z,7.35
2024-02-06T06:06:53.494Z,7.35
2024-02-06T06:11:50.131Z,7.36
2024-02-06T06:16:46.659Z,7.34
2024-02-06T06:21:44.024Z,7.38
2024-02-06T06:26:42.144Z,7.41
2024-02-06T06:31:38.903Z,7.45
2024-02-06T06:36:36.079Z,7.45
2024-02-06T06:41:32.400Z,7.43
2024-02-06T06:46:28.778Z,7.40
2024-02-06T06:51:25.133Z,7.36
2024-02-06T06:56:21.622Z,7.33
2024-02-06T07:01:18.060Z,7.35
2024-02-06T07:06:14.505Z,7.30
2024-02-06T07:11:11.524Z,7.31
2024-02-06T07:16:07.991Z,7.35
2024-02-06T07:21:04.824Z,7.33
2024-02-06T07:26:05.284Z,7.31
2024-02-06T07:31:03.054Z,7.30
2024-02-06T07:35:59.452Z,7.29
2024-02-06T07:40:55.910Z,7.32
2024-02-06T07:45:52.447Z,7.39
2024-02-06T07:50:50.978Z,7.37
2024-02-06T07:55:47.633Z,7.42
2024-02-06T08:00:44.511Z,7.45
2024-02-06T08:05:41.055Z,7.52
2024-02-06T08:10:37.502Z,7.55
2024-02-06T08:15:34.016Z,7.63
2024-02-06T08:20:30.589Z,7.71
2024-02-06T08:25:27.199Z,7.82
2024-02-06T08:30:23.627Z,7.91
2024-02-06T08:35:20.356Z,7.97
2024-02-06T08:40:17.101Z,8.02
2024-02-06T08:45:14.575Z,8.09
2024-02-06T08:50:11.342Z,8.15
2024-02-06T08:55:08.911Z,8.19
2024-02-06T09:00:06.023Z,8.18
2024-02-06T09:05:02.506Z,8.18
2024-02-06T09:10:00.960Z,8.25
2024-02-06T09:15:01.905Z,8.26
2024-02-06T09:19:58.452Z,8.34
2024-02-06T09:24:55.141Z,8.31
2024-02-06T09:29:51.466Z,8.20
2024-02-06T09:34:48.073Z,8.15
2024-02-06T09:39:44.734Z,8.23
2024-02-06T09:44:41.289Z,8.23
2024-02-06T09:49:37.726Z,8.29
2024-02-06T09:54:40.597Z,8.33
2024-02-06T09:59:38.440Z,8.38
2024-02-06T10:04:36.792Z,8.42
2024-02-06T10:09:36.379Z,8.48
2024-02-06T10:14:32.828Z,8.53
2024-02-06T10:19:33.637Z,8.62
2024-02-06T10:24:30.316Z,8.70
2024-02-06T10:29:28.792Z,8.72
2024-02-06T10:34:29.569Z,8.76
2024-02-06T10:39:30.257Z,8.85
2024-02-06T10:44:29.278Z,8.93
2024-02-06T10:49:26.113Z,9.02
2024-02-06T10:54:22.962Z,9.10
2024-02-06T10:59:26.420Z,9.24
2024-02-06T11:04:24.769Z,9.28
2024-02-06T11:09:25.874Z,9.32
2024-02-06T11:14:25.162Z,9.30
2024-02-06T11:19:30.355Z,9.29
2024-02-06T11:24:27.973Z,9.25
2024-02-06T11:29:24.624Z,9.22
2024-02-06T11:34:21.201Z,9.27
2024-02-06T11:39:23.424Z,9.21
2024-02-06T11:44:24.913Z,9.18
2024-02-06T11:49:25.670Z,9.01
2024-02-06T11:54:26.759Z,8.95
2024-02-06T11:59:23.409Z,8.97
2024-02-06T12:04:24.433Z,9.07
2024-02-06T12:09:21.320Z,9.19
2024-02-06T12:14:17.839Z,9.27
2024-02-06T12:19:14.872Z,9.35
2024-02-06T12:24:11.258Z,9.39
2024-02-06T12:29:07.956Z,9.41
2024-02-06T12:34:11.544Z,9.37
2024-02-06T12:39:15.727Z,9.37
2024-02-06T12:44:14.287Z,9.34
2024-02-06T12:49:12.317Z,9.38
2024-02-06T12:54:09.068Z,9.41
2024-02-06T12:59:16.404Z,9.43
2024-02-06T13:04:27.659Z,9.47
2024-02-06T13:09:25.858Z,9.47
2024-02-06T13:14:22.517Z,9.47
2024-02-06T13:19:30.204Z,9.32
2024-02-06T13:24:28.492Z,9.25
2024-02-06T13:29:25.774Z,9.13
2024-02-06T13:34:22.178Z,9.02
2024-02-06T13:39:18.566Z,8.87
2024-02-06T13:44:14.893Z,8.69
2024-02-06T13:49:11.505Z,8.58
2024-02-06T13:54:08.345Z,8.55
2024-02-06T13:59:04.751Z,8.53
2024-02-06T14:04:01.275Z,8.54
2024-02-06T14:08:58.322Z,8.68
2024-02-06T14:13:55.291Z,8.77
2024-02-06T14:18:52.801Z,8.86
2024-02-06T14:23:49.177Z,8.90
2024-02-06T14:28:45.680Z,8.98
2024-02-06T14:33:42.193Z,9.12
2024-02-06T14:38:38.608Z,9.25
2024-02-06T14:43:34.988Z,9.33
2024-02-06T14:48:31.452Z,9.36
2024-02-06T14:53:27.842Z,9.30
2024-02-06T14:58:24.232Z,9.27
2024-02-06T15:03:21.639Z,9.31
2024-02-06T15:08:18.142Z,9.38
2024-02-06T15:13:14.761Z,9.34
2024-02-06T15:18:11.430Z,9.41
2024-02-06T15:23:08.171Z,9.37
2024-02-06T15:28:06.760Z,9.53
2024-02-06T15:33:03.615Z,9.55
2024-02-06T15:38:00.027Z,9.55
2024-02-06T15:42:56.841Z,9.62
2024-02-06T15:47:53.424Z,9.68
2024-02-06T15:52:49.941Z,9.74
2024-02-06T15:57:46.646Z,9.78
2024-02-06T16:02:43.336Z,9.73
2024-02-06T16:07:39.815Z,9.80
2024-02-06T16:12:46.222Z,9.88
2024-02-06T16:17:49.603Z,9.87
2024-02-06T16:22:46.675Z,9.87
2024-02-06T16:27:48.362Z,9.90
2024-02-06T16:32:44.742Z,9.94
2024-02-06T16:37:41.437Z,9.90
2024-02-06T16:42:40.975Z,9.91
2024-02-06T16:47:39.797Z,9.94
2024-02-06T16:52:36.383Z,9.91
2024-02-06T16:57:32.822Z,9.88
2024-02-06T17:02:30.703Z,9.70
2024-02-06T17:07:28.764Z,9.49
2024-02-06T17:12:26.938Z,9.31
2024-02-06T17:17:23.414Z,9.26
2024-02-06T17:22:19.824Z,9.24
2024-02-06T17:27:16.478Z,9.13
2024-02-06T17:32:13.028Z,9.04
2024-02-06T17:37:10.246Z,8.93
2024-02-06T17:42:07.248Z,8.85
2024-02-06T17:47:04.630Z,8.77
2024-02-06T17:52:01.851Z,8.71
2024-02-06T17:56:58.529Z,8.64
2024-02-06T18:01:54.892Z,8.61
2024-02-06T18:06:51.541Z,8.68
2024-02-06T18:11:47.976Z,8.76
2024-02-06T18:17:02.724Z,8.86
2024-02-06T18:21:59.299Z,8.93
2024-02-06T18:26:55.740Z,8.96
2024-02-06T18:31:52.251Z,8.92
2024-02-06T18:36:50.636Z,8.89
2024-02-06T18:41:47.151Z,8.89
2024-02-06T18:46:45.215Z,8.94
2024-02-06T18:51:41.702Z,8.97
2024-02-06T18:56:38.285Z,9.08
2024-02-06T19:01:34.765Z,9.20
2024-02-06T19:06:31.662Z,9.23
2024-02-06T19:11:30.830Z,9.34
2024-02-06T19:16:27.341Z,9.48
2024-02-06T19:21:24.200Z,9.53
2024-02-06T19:26:20.716Z,9.60
2024-02-06T19:31:17.189Z,9.68
2024-02-06T19:36:13.574Z,9.75
2024-02-06T19:41:10.272Z,9.80
2024-02-06T19:46:06.944Z,9.81
2024-02-06T19:51:04.011Z,9.84
2024-02-06T19:56:00.843Z,9.90
2024-02-06T20:00:57.247Z,9.90
2024-02-06T20:05:53.780Z,9.96
2024-02-06T20:10:50.355Z,10.01
2024-02-06T20:15:47.236Z,9.96
2024-02-06T20:20:43.708Z,10.01
2024-02-06T20:25:40.151Z,10.09
2024-02-06T20:30:36.555Z,10.11
2024-02-06T20:35:32.942Z,10.08
2024-02-06T20:40:29.474Z,10.12
2024-02-06T20:45:25.820Z,10.15
2024-02-06T20:50:22.334Z,10.05
2024-02-06T20:55:18.809Z,10.10
2024-02-06T21:00:16.119Z,10.17
2024-02-06T21:05:12.523Z,10.15
2024-02-06T21:10:09.027Z,10.14
2024-02-06T21:15:06.340Z,10.22
2024-02-06T21:20:08.278Z,10.22
2024-02-06T21:25:06.850Z,10.17
2024-02-06T21:30:04.222Z,10.19
2024-02-06T21:35:00.627Z,10.13
2024-02-06T21:39:57.202Z,10.16
2024-02-06T21:44:53.630Z,10.08
2024-02-06T21:49:51.976Z,10.06
2024-02-06T21:54:49.234Z,9.93
2024-02-06T21:59:45.548Z,9.94
2024-02-06T22:04:42.282Z,9.87
2024-02-06T22:09:38.763Z,9.86
2024-02-06T22:14:35.174Z,9.85
2024-02-06T22:19:32.381Z,9.85
2024-02-06T22:24:28.830Z,9.86
2024-02-06T22:29:25.241Z,9.82
2024-02-06T22:34:22.533Z,9.71
2024-02-06T22:39:19.028Z,9.74
2024-02-06T22:44:16.227Z,9.74
2024-02-06T22:49:13.143Z,9.84
2024-02-06T22:54:10.503Z,9.87
2024-02-06T22:59:07.209Z,9.86
2024-02-06T23:04:05.970Z,9.92
2024-02-06T23:09:05.528Z,9.85
2024-02-06T23:14:01.862Z,9.71
2024-02-06T23:18:58.252Z,9.60
2024-02-06T23:23:54.585Z,9.57
2024-02-06T23:28:51.156Z,9.47
2024-02-06T23:33:47.927Z,9.50
2024-02-06T23:38:58.486Z,9.39
2024-02-06T23:44:00.666Z,9.36
2024-02-06T23:48:58.483Z,9.34
2024-02-06T23:53:54.910Z,9.31
2024-02-06T23:58:51.555Z,9.18
